createdAt,value
2019-04-28T00:02:01.323Z,55.21
2019-04-28T00:04:48.994Z,56.01
2019-04-28T00:07:36.142Z,57.50
2019-04-28T00:10:23.866Z,55.86
2019-04-28T00:13:11.220Z,55.62
2019-04-28T00:15:58.706Z,55.53
2019-04-28T00:18:46.141Z,54.42
2019-04-28T00:21:45.454Z,54.54
2019-04-28T00:25:03.989Z,54.95
2019-04-28T00:27:51.647Z,55.43
2019-04-28T00:30:39.168Z,54.22
2019-04-28T00:33:26.873Z,54.14
2019-04-28T00:36:14.568Z,54.07
2019-04-28T00:39:01.862Z,54.73
2019-04-28T00:41:49.492Z,54.50
2019-04-28T00:44:37.050Z,54.83
2019-04-28T00:47:24.910Z,54.23
2019-04-28T00:50:12.305Z,53.88
2019-04-28T00:53:01.613Z,55.78
2019-04-28T00:55:48.692Z,54.18
2019-04-28T00:58:36.404Z,54.84
2019-04-28T01:01:40.680Z,54.60
2019-04-28T01:04:29.108Z,54.49
2019-04-28T01:07:16.591Z,54.74
2019-04-28T01:10:04.640Z,55.57
2019-04-28T01:12:52.355Z,55.64
2019-04-28T01:15:50.069Z,55.86
2019-04-28T01:18:43.164Z,56.61
2019-04-28T01:21:50.257Z,55.92
2019-04-28T01:24:39.756Z,56.28
2019-04-28T01:27:46.820Z,56.29
2019-04-28T01:30:53.693Z,56.03
2019-04-28T01:34:03.131Z,56.13
2019-04-28T01:36:51.633Z,55.69
2019-04-28T01:39:41.175Z,55.87
2019-04-28T01:42:30.230Z,56.08
2019-04-28T01:45:17.601Z,55.85
2019-04-28T01:48:05.278Z,55.42
2019-04-28T01:50:52.903Z,55.02
2019-04-28T01:53:40.494Z,55.19
2019-04-28T01:56:27.832Z,55.08
2019-04-28T01:59:15.154Z,55.03
2019-04-28T02:02:02.702Z,55.23
2019-04-28T02:04:50.446Z,55.36
2019-04-28T02:07:40.582Z,55.52
2019-04-28T02:10:27.285Z,55.65
2019-04-28T02:13:15.004Z,55.43
2019-04-28T02:16:02.263Z,54.80
2019-04-28T02:18:49.909Z,54.93
2019-04-28T02:21:53.044Z,55.33
2019-04-28T02:24:40.758Z,55.56
2019-04-28T02:27:30.065Z,55.82
2019-04-28T02:30:17.252Z,56.82
2019-04-28T02:33:04.685Z,57.03
2019-04-28T02:35:52.389Z,57.51
2019-04-28T02:38:41.366Z,57.44
2019-04-28T02:41:30.654Z,57.15
2019-04-28T02:44:23.105Z,57.66
2019-04-28T02:47:07.044Z,57.52
2019-04-28T02:50:13.704Z,57.49
2019-04-28T02:53:25.773Z,57.25
2019-04-28T02:56:13.228Z,57.23
2019-04-28T02:59:01.027Z,57.35
2019-04-28T03:01:50.915Z,58.31
2019-04-28T03:04:40.881Z,58.67
2019-04-28T03:07:27.840Z,56.83
2019-04-28T03:10:15.945Z,56.49
2019-04-28T03:13:03.486Z,55.50
2019-04-28T03:15:51.635Z,56.09
2019-04-28T03:18:41.283Z,55.43
2019-04-28T03:21:31.090Z,55.67
2019-04-28T03:24:17.350Z,55.78
2019-04-28T03:27:32.938Z,56.04
2019-04-28T03:30:38.226Z,55.99
2019-04-28T03:33:26.852Z,57.23
2019-04-28T03:36:15.845Z,56.71
2019-04-28T03:39:04.603Z,57.21
2019-04-28T03:41:52.592Z,56.86
2019-04-28T03:44:41.375Z,57.57
2019-04-28T03:47:31.130Z,56.98
2019-04-28T03:50:20.275Z,57.22
2019-04-28T03:53:07.773Z,57.37
2019-04-28T03:55:55.574Z,56.58
2019-04-28T03:58:43.271Z,56.46
2019-04-28T04:01:30.923Z,56.90
2019-04-28T04:04:17.973Z,57.04
2019-04-28T04:07:05.400Z,56.86
2019-04-28T04:10:02.889Z,57.38
2019-04-28T04:13:01.011Z,57.43
2019-04-28T04:16:01.627Z,57.93
2019-04-28T04:18:53.778Z,58.40
2019-04-28T04:21:40.765Z,58.74
2019-04-28T04:24:30.611Z,58.82
2019-04-28T04:27:20.769Z,58.78
2019-04-28T04:30:07.060Z,60.38
2019-04-28T04:32:54.348Z,61.60
2019-04-28T04:35:43.626Z,60.75
2019-04-28T04:38:31.595Z,61.22
2019-04-28T04:41:20.241Z,60.71
2019-04-28T04:44:10.921Z,60.42
2019-04-28T04:46:57.442Z,60.08
2019-04-28T04:49:45.180Z,59.76
2019-04-28T04:52:33.116Z,59.86
2019-04-28T04:55:21.186Z,61.24
2019-04-28T04:58:10.757Z,60.71
2019-04-28T05:01:06.266Z,59.76
2019-04-28T05:03:55.238Z,61.08
2019-04-28T05:06:42.782Z,60.83
2019-04-28T05:09:31.192Z,60.82
2019-04-28T05:12:19.614Z,60.05
2019-04-28T05:15:07.469Z,58.88
2019-04-28T05:17:54.887Z,57.21
2019-04-28T05:20:42.883Z,55.34
2019-04-28T05:23:39.925Z,54.45
2019-04-28T05:26:27.818Z,56.00
2019-04-28T05:29:15.313Z,57.22
2019-04-28T05:32:03.488Z,58.62
2019-04-28T05:34:52.888Z,59.89
2019-04-28T05:37:40.568Z,61.97
2019-04-28T05:40:29.581Z,62.35
2019-04-28T05:43:17.456Z,62.28
2019-04-28T05:46:04.763Z,63.13
2019-04-28T05:49:10.252Z,63.52
2019-04-28T05:52:01.343Z,63.65
2019-04-28T05:54:55.154Z,64.49
2019-04-28T05:57:53.048Z,64.77
2019-04-28T06:00:53.480Z,64.72
2019-04-28T06:03:41.526Z,65.15
2019-04-28T06:06:31.903Z,64.63
2019-04-28T06:09:47.574Z,65.21
2019-04-28T06:12:35.235Z,65.36
2019-04-28T06:15:23.375Z,65.63
2019-04-28T06:18:10.904Z,63.83
2019-04-28T06:20:58.611Z,64.91
2019-04-28T06:23:46.320Z,65.27
2019-04-28T06:26:34.068Z,64.93
2019-04-28T06:29:21.599Z,65.00
2019-04-28T06:32:09.202Z,64.84
2019-04-28T06:34:56.626Z,65.45
2019-04-28T06:37:44.111Z,65.23
2019-04-28T06:40:31.724Z,64.83
2019-04-28T06:43:19.296Z,64.74
2019-04-28T06:46:07.160Z,64.60
2019-04-28T06:48:54.728Z,63.72
2019-04-28T06:51:42.287Z,62.54
2019-04-28T06:54:30.852Z,63.61
2019-04-28T06:57:18.538Z,64.65
2019-04-28T07:00:07.276Z,65.17
2019-04-28T07:02:54.342Z,64.37
2019-04-28T07:05:41.872Z,64.46
2019-04-28T07:08:29.294Z,64.45
2019-04-28T07:11:16.980Z,64.40
2019-04-28T07:14:04.159Z,63.66
2019-04-28T07:16:52.003Z,65.23
2019-04-28T07:19:39.857Z,64.68
2019-04-28T07:22:29.140Z,65.09
2019-04-28T07:25:16.781Z,65.47
2019-04-28T07:28:04.735Z,65.32
2019-04-28T07:30:52.298Z,65.39
2019-04-28T07:33:40.143Z,66.36
2019-04-28T07:36:28.313Z,66.35
2019-04-28T07:39:16.005Z,65.58
2019-04-28T07:42:03.727Z,64.70
2019-04-28T07:44:51.288Z,65.48
2019-04-28T07:47:39.203Z,64.35
2019-04-28T07:50:26.798Z,63.65
2019-04-28T07:53:19.341Z,63.20
2019-04-28T07:56:07.085Z,62.87
2019-04-28T07:58:54.746Z,63.41
2019-04-28T08:01:42.176Z,59.64
2019-04-28T08:04:29.659Z,58.09
2019-04-28T08:07:16.929Z,56.65
2019-04-28T08:10:04.140Z,55.44
2019-04-28T08:12:51.740Z,55.33
2019-04-28T08:15:39.400Z,56.98
2019-04-28T08:18:26.609Z,57.95
2019-04-28T08:21:15.573Z,61.15
2019-04-28T08:24:03.522Z,59.25
2019-04-28T08:26:51.372Z,60.46
2019-04-28T08:29:38.793Z,57.40
2019-04-28T08:32:34.887Z,56.71
2019-04-28T08:35:23.063Z,54.94
2019-04-28T08:38:10.583Z,55.10
2019-04-28T08:40:58.366Z,55.38
2019-04-28T08:43:45.581Z,54.89
2019-04-28T08:46:33.014Z,54.29
2019-04-28T08:49:20.716Z,53.26
2019-04-28T08:52:08.226Z,50.00
2019-04-28T08:54:55.477Z,47.93
2019-04-28T08:57:42.939Z,47.91
2019-04-28T09:00:30.712Z,46.72
2019-04-28T09:03:17.965Z,47.47
2019-04-28T09:06:05.944Z,48.41
2019-04-28T09:08:53.760Z,48.52
2019-04-28T09:11:41.750Z,50.66
2019-04-28T09:14:29.523Z,48.23
2019-04-28T09:17:17.351Z,48.60
2019-04-28T09:20:05.487Z,51.84
2019-04-28T09:22:53.354Z,49.51
2019-04-28T09:25:41.063Z,52.25
2019-04-28T09:28:28.557Z,49.43
2019-04-28T09:31:15.999Z,52.37
2019-04-28T09:34:03.970Z,53.80
2019-04-28T09:36:51.930Z,50.76
2019-04-28T09:39:52.422Z,48.76
2019-04-28T09:42:58.152Z,47.64
2019-04-28T09:45:54.247Z,48.45
2019-04-28T09:48:42.053Z,48.62
2019-04-28T09:51:29.479Z,48.04
2019-04-28T09:54:16.950Z,48.29
2019-04-28T09:57:04.293Z,49.28
2019-04-28T09:59:52.989Z,50.19
2019-04-28T10:02:40.558Z,48.66
2019-04-28T10:05:28.355Z,50.80
2019-04-28T10:08:16.214Z,47.77
2019-04-28T10:11:03.901Z,47.43
2019-04-28T10:13:51.423Z,44.26
2019-04-28T10:16:38.873Z,45.55
2019-04-28T10:19:26.185Z,45.98
2019-04-28T10:22:13.776Z,46.64
2019-04-28T10:25:00.870Z,44.80
2019-04-28T10:27:48.127Z,44.07
2019-04-28T10:30:35.688Z,43.20
2019-04-28T10:33:23.172Z,44.57
2019-04-28T10:36:10.625Z,43.78
2019-04-28T10:39:17.752Z,42.23
2019-04-28T10:42:05.180Z,42.03
2019-04-28T10:44:52.894Z,41.87
2019-04-28T10:47:40.007Z,42.38
2019-04-28T10:50:27.561Z,42.34
2019-04-28T10:53:15.294Z,41.16
2019-04-28T10:56:02.799Z,41.93
2019-04-28T10:58:51.976Z,43.27
2019-04-28T11:01:39.361Z,42.80
2019-04-28T11:04:47.656Z,41.71
2019-04-28T11:07:35.483Z,41.57
2019-04-28T11:10:23.309Z,43.38
2019-04-28T11:13:10.432Z,42.66
2019-04-28T11:15:58.220Z,41.63
2019-04-28T11:18:46.224Z,41.99
2019-04-28T11:21:33.614Z,40.36
2019-04-28T11:24:21.091Z,40.72
2019-04-28T11:27:09.289Z,41.38
2019-04-28T11:29:56.776Z,43.03
2019-04-28T11:32:52.034Z,42.22
2019-04-28T11:35:39.823Z,40.38
2019-04-28T11:38:27.557Z,38.45
2019-04-28T11:41:15.347Z,37.70
2019-04-28T11:44:03.096Z,37.45
2019-04-28T11:46:50.667Z,37.57
2019-04-28T11:49:38.005Z,37.35
2019-04-28T11:52:25.497Z,37.62
2019-04-28T11:55:13.093Z,37.04
2019-04-28T11:58:00.993Z,38.07
2019-04-28T12:00:48.652Z,37.78
2019-04-28T12:03:36.144Z,37.55
2019-04-28T12:06:23.774Z,39.20
2019-04-28T12:09:36.855Z,36.13
2019-04-28T12:12:55.878Z,37.92
2019-04-28T12:16:08.077Z,37.84
2019-04-28T12:19:02.646Z,38.24
2019-04-28T12:21:50.467Z,38.63
2019-04-28T12:24:38.174Z,39.36
2019-04-28T12:27:25.815Z,40.41
2019-04-28T12:30:13.545Z,43.33
2019-04-28T12:33:01.323Z,44.57
2019-04-28T12:35:49.070Z,43.82
2019-04-28T12:38:36.755Z,43.64
2019-04-28T12:41:24.737Z,43.70
2019-04-28T12:44:12.527Z,43.01
2019-04-28T12:47:00.002Z,45.11
2019-04-28T12:49:55.389Z,46.34
2019-04-28T12:52:42.907Z,46.92
2019-04-28T12:55:30.366Z,47.72
2019-04-28T12:58:18.246Z,48.84
2019-04-28T13:01:25.161Z,50.66
2019-04-28T13:04:30.572Z,51.01
2019-04-28T13:07:18.068Z,50.52
2019-04-28T13:10:05.767Z,49.82
2019-04-28T13:12:53.112Z,50.11
2019-04-28T13:15:41.153Z,49.61
2019-04-28T13:18:28.828Z,48.95
2019-04-28T13:21:16.899Z,48.55
2019-04-28T13:24:04.185Z,49.36
2019-04-28T13:26:52.399Z,49.31
2019-04-28T13:29:39.695Z,47.88
2019-04-28T13:32:27.068Z,47.13
2019-04-28T13:35:15.219Z,46.82
2019-04-28T13:38:03.048Z,46.54
2019-04-28T13:40:51.046Z,46.76
2019-04-28T13:43:38.480Z,46.77
2019-04-28T13:46:26.315Z,48.27
2019-04-28T13:49:15.360Z,47.67
2019-04-28T13:52:03.013Z,48.03
2019-04-28T13:54:52.922Z,47.39
2019-04-28T13:57:42.286Z,48.11
2019-04-28T14:00:39.229Z,48.61
2019-04-28T14:03:34.393Z,48.58
2019-04-28T14:06:28.390Z,48.30
2019-04-28T14:09:18.417Z,47.27
2019-04-28T14:12:05.844Z,47.13
2019-04-28T14:14:53.268Z,46.74
2019-04-28T14:17:41.264Z,47.58
2019-04-28T14:20:28.731Z,46.54
2019-04-28T14:23:16.075Z,46.95
2019-04-28T14:26:03.489Z,46.90
2019-04-28T14:28:50.987Z,46.21
2019-04-28T14:31:38.316Z,46.85
2019-04-28T14:34:25.579Z,47.34
2019-04-28T14:37:12.999Z,46.63
2019-04-28T14:40:00.769Z,47.30
2019-04-28T14:42:48.146Z,47.15
2019-04-28T14:45:35.469Z,46.96
2019-04-28T14:48:23.245Z,47.15
2019-04-28T14:51:11.068Z,46.88
2019-04-28T14:53:59.213Z,46.96
2019-04-28T14:56:46.955Z,46.71
2019-04-28T14:59:34.563Z,46.20
2019-04-28T15:02:35.527Z,46.45
2019-04-28T15:05:39.477Z,46.06
2019-04-28T15:08:37.612Z,46.02
2019-04-28T15:11:29.615Z,45.87
2019-04-28T15:14:16.681Z,45.53
2019-04-28T15:17:04.387Z,45.29
2019-04-28T15:19:51.435Z,45.36
2019-04-28T15:22:38.859Z,45.17
2019-04-28T15:25:25.937Z,44.69
2019-04-28T15:28:13.594Z,45.03
2019-04-28T15:31:01.119Z,43.83
2019-04-28T15:33:48.911Z,43.99
2019-04-28T15:36:36.005Z,44.23
2019-04-28T15:39:23.350Z,44.73
2019-04-28T15:42:10.992Z,44.94
2019-04-28T15:44:58.336Z,45.42
2019-04-28T15:47:46.229Z,45.97
2019-04-28T15:50:33.953Z,46.46
2019-04-28T15:53:21.328Z,46.59
2019-04-28T15:56:17.620Z,47.71
2019-04-28T15:59:06.665Z,48.09
2019-04-28T16:01:54.141Z,47.82
2019-04-28T16:04:43.369Z,47.30
2019-04-28T16:07:30.957Z,46.98
2019-04-28T16:10:18.326Z,45.77
2019-04-28T16:13:05.728Z,45.55
2019-04-28T16:15:53.575Z,45.53
2019-04-28T16:18:41.120Z,45.50
2019-04-28T16:21:28.567Z,45.63
2019-04-28T16:24:16.481Z,45.66
2019-04-28T16:27:04.566Z,45.40
2019-04-28T16:29:52.255Z,44.67
2019-04-28T16:32:39.646Z,44.56
2019-04-28T16:35:27.486Z,44.97
2019-04-28T16:38:15.374Z,44.89
2019-04-28T16:41:03.176Z,44.30
2019-04-28T16:43:50.531Z,45.03
2019-04-28T16:46:38.430Z,45.52
2019-04-28T16:49:25.513Z,44.39
2019-04-28T16:52:12.898Z,44.19
2019-04-28T16:55:19.499Z,44.06
2019-04-28T16:58:26.331Z,44.24
2019-04-28T17:01:25.986Z,45.11
2019-04-28T17:04:13.667Z,44.88
2019-04-28T17:07:01.015Z,45.05
2019-04-28T17:09:48.642Z,44.87
2019-04-28T17:12:36.549Z,45.22
2019-04-28T17:15:24.181Z,46.17
2019-04-28T17:18:11.872Z,47.03
2019-04-28T17:20:59.468Z,48.07
2019-04-28T17:23:47.174Z,49.31
2019-04-28T17:26:34.502Z,50.08
2019-04-28T17:29:22.670Z,50.79
2019-04-28T17:32:10.601Z,51.65
2019-04-28T17:34:58.090Z,51.88
2019-04-28T17:37:45.646Z,51.90
2019-04-28T17:40:33.785Z,52.66
2019-04-28T17:43:20.974Z,52.94
2019-04-28T17:46:08.632Z,52.82
2019-04-28T17:48:57.686Z,52.52
2019-04-28T17:51:45.373Z,52.79
2019-04-28T17:54:32.760Z,53.02
2019-04-28T17:57:20.550Z,52.80
2019-04-28T18:00:19.049Z,52.95
2019-04-28T18:03:19.687Z,53.28
2019-04-28T18:06:17.923Z,52.64
2019-04-28T18:09:06.074Z,52.99
2019-04-28T18:11:53.594Z,53.53
2019-04-28T18:14:42.912Z,53.32
2019-04-28T18:17:49.577Z,52.98
2019-04-28T18:20:37.328Z,52.97
2019-04-28T18:23:24.784Z,53.06
2019-04-28T18:26:12.529Z,53.51
2019-04-28T18:29:00.186Z,54.52
2019-04-28T18:32:06.693Z,55.54
2019-04-28T18:35:04.004Z,55.62
2019-04-28T18:37:59.670Z,56.31
2019-04-28T18:40:59.904Z,58.12
2019-04-28T18:44:06.374Z,59.31
2019-04-28T18:46:53.854Z,60.68
2019-04-28T18:49:41.348Z,61.81
2019-04-28T18:52:29.037Z,61.68
2019-04-28T18:55:16.709Z,62.25
2019-04-28T18:58:04.163Z,63.43
2019-04-28T19:01:12.444Z,63.13
2019-04-28T19:03:59.742Z,63.73
2019-04-28T19:06:47.652Z,63.68
2019-04-28T19:09:45.443Z,64.71
2019-04-28T19:12:43.394Z,65.17
2019-04-28T19:15:49.045Z,64.87
2019-04-28T19:18:38.904Z,64.22
2019-04-28T19:21:25.989Z,64.86
2019-04-28T19:24:13.310Z,64.60
2019-04-28T19:27:02.304Z,64.87
2019-04-28T19:29:49.253Z,64.90
2019-04-28T19:32:36.988Z,64.48
2019-04-28T19:35:24.605Z,64.56
2019-04-28T19:38:12.493Z,63.47
2019-04-28T19:40:59.953Z,63.94
2019-04-28T19:43:47.197Z,64.37
2019-04-28T19:46:34.699Z,64.74
2019-04-28T19:49:22.407Z,65.49
2019-04-28T19:52:10.154Z,64.94
2019-04-28T19:55:18.166Z,64.75
2019-04-28T19:58:11.481Z,64.11
2019-04-28T20:01:01.992Z,63.63
2019-04-28T20:03:49.727Z,63.77
2019-04-28T20:06:37.559Z,63.26
2019-04-28T20:09:24.897Z,62.67
2019-04-28T20:12:12.707Z,62.25
2019-04-28T20:14:59.826Z,63.53
2019-04-28T20:17:47.523Z,64.15
2019-04-28T20:20:35.358Z,64.74
2019-04-28T20:23:22.514Z,63.86
2019-04-28T20:26:10.106Z,63.30
2019-04-28T20:28:57.736Z,63.98
2019-04-28T20:31:48.649Z,64.68
2019-04-28T20:34:36.140Z,65.14
2019-04-28T20:37:32.588Z,65.08
2019-04-28T20:40:26.494Z,64.89
2019-04-28T20:43:16.161Z,65.00
2019-04-28T20:46:03.662Z,64.26
2019-04-28T20:48:51.277Z,64.67
2019-04-28T20:51:38.895Z,64.53
2019-04-28T20:54:26.275Z,65.59
2019-04-28T20:57:13.921Z,66.86
2019-04-28T21:00:01.025Z,65.01
2019-04-28T21:02:48.626Z,65.20
2019-04-28T21:05:36.708Z,66.21
2019-04-28T21:08:23.877Z,66.65
2019-04-28T21:11:11.749Z,66.38
2019-04-28T21:13:59.069Z,65.63
2019-04-28T21:16:46.473Z,65.22
2019-04-28T21:19:34.053Z,65.26
2019-04-28T21:22:21.897Z,64.93
2019-04-28T21:25:09.443Z,65.18
2019-04-28T21:27:57.066Z,65.57
2019-04-28T21:30:44.226Z,65.49
2019-04-28T21:33:31.570Z,65.61
2019-04-28T21:36:19.011Z,65.29
2019-04-28T21:39:08.279Z,65.33
2019-04-28T21:41:57.588Z,64.76
2019-04-28T21:45:00.203Z,64.46
2019-04-28T21:47:47.902Z,64.40
2019-04-28T21:50:35.428Z,64.18
2019-04-28T21:53:22.581Z,63.57
2019-04-28T21:56:10.055Z,63.87
2019-04-28T21:58:57.493Z,64.76
2019-04-28T22:01:45.205Z,65.04
2019-04-28T22:04:32.998Z,64.01
2019-04-28T22:07:20.662Z,64.41
2019-04-28T22:10:09.118Z,65.89
2019-04-28T22:12:56.547Z,65.59
2019-04-28T22:15:43.923Z,65.85
2019-04-28T22:18:32.248Z,65.64
2019-04-28T22:21:19.940Z,65.64
2019-04-28T22:24:22.451Z,66.89
2019-04-28T22:27:12.106Z,66.23
2019-04-28T22:29:59.589Z,65.88
2019-04-28T22:32:47.134Z,66.67
2019-04-28T22:35:34.819Z,66.39
2019-04-28T22:38:22.206Z,66.11
2019-04-28T22:41:09.626Z,67.57
2019-04-28T22:43:57.490Z,67.60
2019-04-28T22:46:44.979Z,67.54
2019-04-28T22:49:32.549Z,66.68
2019-04-28T22:52:20.004Z,67.58
2019-04-28T22:55:15.518Z,67.50
2019-04-28T22:58:15.839Z,67.15
2019-04-28T23:01:14.606Z,67.03
2019-04-28T23:04:11.285Z,67.00
2019-04-28T23:06:58.354Z,66.96
2019-04-28T23:09:45.510Z,67.13
2019-04-28T23:12:33.195Z,67.09
2019-04-28T23:15:20.670Z,66.96
2019-04-28T23:18:08.368Z,67.26
2019-04-28T23:20:59.016Z,66.62
2019-04-28T23:23:46.588Z,67.50
2019-04-28T23:26:34.279Z,66.69
2019-04-28T23:29:22.145Z,66.38
2019-04-28T23:32:10.147Z,67.46
2019-04-28T23:34:57.277Z,67.42
2019-04-28T23:37:44.358Z,68.32
2019-04-28T23:40:32.260Z,67.95
2019-04-28T23:43:20.749Z,68.29
2019-04-28T23:46:08.139Z,68.59
2019-04-28T23:48:55.454Z,67.82
2019-04-28T23:51:49.396Z,66.79
2019-04-28T23:54:38.971Z,66.24
2019-04-28T23:57:26.200Z,66.54
